Test XHTML 1.0 Strict Page for WU-History Testing
Histórico de la Estación METEOCORUÑA
Diario Datos del Abril 18, 2018 Unidades:  Metrico    Inglés   Ambos
« Prev Dia
Sig Dia »
Diario Semanal Mensual Anual Rango
  Max: Min: Media:
Temp: -17.8 °C -11.3 °C -9.1 °C
Rocío: -17.8 °C -58.5 °C -13.2 °C
Humedad: Humidity % 48 % 74 %
Vel. viento: 0 km/h 0 km/h 13.4 km/h
Racha: 0 km/h - -
Viento:- - SW
Presión: 0 hPa -114650 hPa -
Lluvia: 0 mm    
Historical Graphs
 
 
Busqueda de Abril 18, 2018
Hora Temp Rocío Presión Viento Vel. viento Racha Humedad Ratio lluvia (/hora) Radiación
-17.8 °C -17.8 °C 0 hPa Calm     Humidity % 0 mm SolarRadiationWatts/m^2 W/m2
00:03 -9.7 °C -11.9 °C 34611.7 hPa SE 7.7 km/h 15.6 km/h 77 % 0 mm 0 W/m2
00:08 -9.7 °C -11.9 °C 34611.7 hPa SE 10.3 km/h 23.3 km/h 77 % 0 mm 0 W/m2
00:13 -9.8 °C -11.9 °C 34611.7 hPa ESE 7.7 km/h 25.9 km/h 78 % 0 mm 0 W/m2
00:18 -9.8 °C -11.9 °C 34611.7 hPa SE 7.7 km/h 28.5 km/h 78 % 0 mm 0 W/m2
00:23 -9.8 °C -11.9 °C 34611.7 hPa SE 10.3 km/h 23.3 km/h 78 % 0 mm 0 W/m2
00:28 -9.9 °C -12 °C 34611.7 hPa SE 10.3 km/h 18.2 km/h 78 % 0 mm 0 W/m2
00:33 -9.9 °C -12 °C 34611.7 hPa SE 7.7 km/h 20.8 km/h 78 % 0 mm 0 W/m2
00:38 -9.9 °C -11.9 °C 34611.7 hPa ESE 7.7 km/h 20.8 km/h 79 % 0 mm 0 W/m2
00:43 -10 °C -12 °C 34611.7 hPa SE 7.7 km/h 15.6 km/h 79 % 0 mm 0 W/m2
00:48 -10.1 °C -12.1 °C 34611.7 hPa SE 7.7 km/h 25.9 km/h 79 % 0 mm 0 W/m2
00:53 -10.1 °C -12.1 °C 34611.7 hPa SE 10.3 km/h 36.2 km/h 79 % 0 mm 0 W/m2
00:58 -10.1 °C -12 °C 34611.7 hPa SE 15.6 km/h 33.6 km/h 80 % 0 mm 0 W/m2
01:03 -10.1 °C -11.9 °C 34611.7 hPa SE 20.8 km/h 46.7 km/h 80 % 0 mm 0 W/m2
01:08 -9.9 °C -11.8 °C 34611.7 hPa SE 25.9 km/h 51.8 km/h 80 % 0 mm 0 W/m2
01:13 -9.7 °C -11.7 °C 34611.7 hPa SSE 28.5 km/h 51.8 km/h 79 % 0 mm 0 W/m2
01:18 -9.6 °C -11.6 °C 34611.7 hPa SSE 25.9 km/h 49.2 km/h 79 % 0 mm 0 W/m2
01:23 -9.6 °C -11.7 °C 34611.7 hPa SSE 23.3 km/h 28.5 km/h 78 % 0 mm 0 W/m2
01:28 -9.7 °C -11.8 °C 34611.7 hPa SSE 20.8 km/h 36.2 km/h 78 % 0 mm 0 W/m2
01:43 -9.8 °C -58.5 °C -114650 hPa SE 2.6 km/h 28.5 km/h 78 % 0 mm 0 W/m2
01:53 -10.1 °C -12.1 °C 34601.5 hPa SE 10.3 km/h 31.1 km/h 79 % 0 mm 0 W/m2
01:58 -10.2 °C -12.1 °C 34601.5 hPa ESE 10.3 km/h 33.6 km/h 80 % 0 mm 0 W/m2
02:03 -10.2 °C -12 °C 34601.5 hPa SE 12.9 km/h 36.2 km/h 81 % 0 mm 0 W/m2
02:13 -10.2 °C -11.9 °C 34601.5 hPa SE 15.6 km/h 36.2 km/h 82 % 0 mm 0 W/m2
02:23 -10.2 °C -11.9 °C 34591.4 hPa SE 18.2 km/h 36.2 km/h 82 % 0 mm 0 W/m2
02:28 -10.2 °C -11.8 °C 34591.4 hPa SE 26.9 km/h 26.9 km/h 83 % 0 mm 0.0 W/m2
02:33 -10.1 °C -11.7 °C 34577.8 hPa ESE 36.2 km/h 36.2 km/h 83 % 0 mm 0.0 W/m2
02:38 -9.9 °C -11.5 °C 34591.4 hPa SE 18.2 km/h 33.6 km/h 83 % 0 mm 0 W/m2
02:43 -9.8 °C -11.4 °C 34577.8 hPa SE 29.8 km/h 29.8 km/h 82 % 0 mm 0.0 W/m2
02:48 -9.6 °C -11.4 °C 34577.8 hPa SSE 28.5 km/h 28.5 km/h 81 % 0 mm 0.0 W/m2
02:53 -9.5 °C -11.3 °C 34577.8 hPa ESE 25.9 km/h 25.9 km/h 81 % 0 mm 0.0 W/m2
02:58 -9.5 °C -11.4 °C 34567.7 hPa SE 29.8 km/h 29.8 km/h 80 % 0 mm 0.0 W/m2
03:03 -9.5 °C -11.4 °C 34577.8 hPa SSE 12.9 km/h 28.5 km/h 80 % 0 mm 0 W/m2
03:08 -9.5 °C -11.4 °C 34577.8 hPa SSE 12.9 km/h 23.3 km/h 80 % 0 mm 0 W/m2
03:13 -9.6 °C -11.4 °C 34567.7 hPa ESE 20.9 km/h 20.9 km/h 80 % 0 mm 0.0 W/m2
03:18 -9.5 °C -11.4 °C 34577.8 hPa SSE 12.9 km/h 20.8 km/h 80 % 0 mm 0 W/m2
03:23 -9.4 °C -11.3 °C 34577.8 hPa SSE 10.3 km/h 18.2 km/h 80 % 0 mm 0 W/m2
03:28 -9.4 °C -11.3 °C 34577.8 hPa SSE 7.7 km/h 20.8 km/h 80 % 0 mm 0 W/m2
03:33 -9.2 °C -11.2 °C 34567.7 hPa SSE 18.2 km/h 18.2 km/h 79 % 0 mm 0.0 W/m2
03:38 -9.1 °C -11.3 °C 34567.7 hPa SSE 15.6 km/h 15.6 km/h 78 % 0 mm 0.0 W/m2
03:43 -9.1 °C -11.2 °C 34567.7 hPa SE 10.3 km/h 18.2 km/h 78 % 0 mm 0 W/m2
03:48 -9.1 °C -11.3 °C 34567.7 hPa SSE 10.3 km/h 18.2 km/h 77 % 0 mm 0 W/m2
03:53 -9.1 °C -11.3 °C 34554.1 hPa SSE 15 km/h 15 km/h 77 % 0 mm 0.0 W/m2
03:58 -9 °C -11.2 °C 34554.1 hPa SSE 15.6 km/h 15.6 km/h 77 % 0 mm 0.0 W/m2
04:03 -9.1 °C -11.4 °C 34554.1 hPa SSE 12.9 km/h 12.9 km/h 76 % 0 mm 0.0 W/m2
04:10 -9.2 °C -11.4 °C 34567.7 hPa SSE 7.7 km/h 12.9 km/h 77 % 0 mm 0 W/m2
04:15 -9.3 °C -11.5 °C 34567.7 hPa SE 7.7 km/h 12.9 km/h 77 % 0 mm 0 W/m2
04:20 -9.4 °C -11.5 °C 34567.7 hPa SE 5.1 km/h 15.6 km/h 78 % 0 mm 0 W/m2
04:30 -9.3 °C -11.3 °C 34567.7 hPa SE 10.3 km/h 15.6 km/h 79 % 0 mm 0 W/m2
04:35 -9.3 °C -11.4 °C 34567.7 hPa SE 7.7 km/h 12.9 km/h 78 % 0 mm 0 W/m2
04:40 -9.4 °C -11.5 °C 34567.7 hPa SE 7.7 km/h 15.6 km/h 78 % 0 mm 0 W/m2
04:45 -9.5 °C -11.5 °C 34554.1 hPa SSE 7.7 km/h 15.6 km/h 79 % 0 mm 0 W/m2
04:55 -9.3 °C -11.3 °C 34554.1 hPa SE 12.9 km/h 20.8 km/h 79 % 0 mm 0 W/m2
05:05 -9.2 °C -11.3 °C 34554.1 hPa SSE 10.3 km/h 15.6 km/h 78 % 0 mm 0 W/m2
05:10 -9.1 °C -11.2 °C 34554.1 hPa SE 10.3 km/h 18.2 km/h 78 % 0 mm 0 W/m2
05:15 -9.1 °C -11.3 °C 34554.1 hPa SSE 10.3 km/h 15.6 km/h 77 % 0 mm 0 W/m2
05:20 -9.1 °C -11.3 °C 34554.1 hPa SSE 10.3 km/h 15.6 km/h 77 % 0 mm 0 W/m2
05:25 -9.2 °C -11.4 °C 34554.1 hPa SSE 7.7 km/h 12.9 km/h 77 % 0 mm 0 W/m2
05:30 -9.2 °C -11.6 °C 34554.1 hPa SSE 7.7 km/h 15.6 km/h 76 % 0 mm 0 W/m2
05:35 -9.3 °C -11.6 °C 34554.1 hPa SSE 5.1 km/h 7.7 km/h 76 % 0 mm 0 W/m2
05:40 -9.3 °C -11.6 °C 34554.1 hPa SSE 2.6 km/h 7.7 km/h 77 % 0 mm 0 W/m2
05:45 -9.4 °C -11.7 °C 34554.1 hPa SSE 2.6 km/h 7.7 km/h 77 % 0 mm 0 W/m2
05:50 -9.5 °C -11.7 °C 34544 hPa SSE 2.6 km/h 7.7 km/h 77 % 0 mm 0 W/m2
05:55 -9.6 °C -11.7 °C 34544 hPa SSE 2.6 km/h 7.7 km/h 78 % 0 mm 0 W/m2
06:00 -9.7 °C -11.9 °C 34544 hPa SSE 2.6 km/h 7.7 km/h 77 % 0 mm 0 W/m2
06:05 -9.9 °C -12.1 °C 34544 hPa SSE 5.1 km/h 5.1 km/h 78 % 0 mm 0 W/m2
06:10 -10.1 °C -12.1 °C 34544 hPa SSE 2.6 km/h 2.6 km/h 79 % 0 mm 0 W/m2
06:15 -10.3 °C -12.2 °C 34544 hPa SSE 2.6 km/h 2.6 km/h 80 % 0 mm 0 W/m2
06:20 -10.4 °C -12.2 °C 34544 hPa Calm   2.6 km/h 81 % 0 mm 0 W/m2
06:25 -10.5 °C -12.2 °C 34544 hPa Calm   2.6 km/h 82 % 0 mm 0 W/m2
06:30 -10.6 °C -12.3 °C 34544 hPa Calm   2.6 km/h 82 % 0 mm 0 W/m2
06:35 -10.7 °C -12.3 °C 34533.8 hPa Calm   2.6 km/h 82 % 0 mm 0 W/m2
06:40 -10.7 °C -12.3 °C 34533.8 hPa Calm     83 % 0 mm 0.0 W/m2
06:45 -10.8 °C -12.2 °C 34533.8 hPa SSE 9 km/h 9 km/h 84 % 0 mm 0.0 W/m2
06:50 -10.8 °C -12.2 °C 34533.8 hPa SSE 3.1 km/h   84 % 0 mm 0.0 W/m2
06:55 -10.8 °C -12.3 °C 34533.8 hPa Calm     84 % 0 mm 0.0 W/m2
07:00 -10.9 °C -12.3 °C 34544 hPa Calm     84 % 0 mm 0 W/m2
07:05 -10.9 °C -12.3 °C 34533.8 hPa SSE 6 km/h 6 km/h 84 % 0 mm 0.0 W/m2
07:10 -10.9 °C -12.4 °C 34533.8 hPa Calm   2.6 km/h 84 % 0 mm 0 W/m2
07:15 -11 °C -12.4 °C 34520.3 hPa SSE 5.1 km/h 5.1 km/h 85 % 0 mm 0.0 W/m2
07:20 -11.1 °C -12.4 °C 34533.8 hPa Calm   2.6 km/h 85 % 0 mm 0 W/m2
07:25 -11.1 °C -12.4 °C 34533.8 hPa Calm     85 % 0 mm 0 W/m2
07:30 -11.2 °C -12.4 °C 34533.8 hPa Calm   2.6 km/h 86 % 0 mm 0 W/m2
07:35 -11.2 °C -12.4 °C 34533.8 hPa Calm   2.6 km/h 86 % 0 mm 0 W/m2
07:40 -11.2 °C -12.4 °C 34533.8 hPa Calm   2.6 km/h 86 % 0 mm 0 W/m2
07:45 -11.2 °C -12.4 °C 34533.8 hPa Calm     86 % 0 mm 5 W/m2
07:50 -11.3 °C -12.6 °C 34533.8 hPa Calm   2.6 km/h 86 % 0 mm 9 W/m2
07:55 -11.3 °C -12.6 °C 34533.8 hPa Calm   5.1 km/h 86 % 0 mm 12 W/m2
08:01 -11.3 °C -12.6 °C 34533.8 hPa Calm   2.6 km/h 86 % 0 mm 18 W/m2
08:06 -11.3 °C -12.5 °C 34533.8 hPa Calm   7.7 km/h 87 % 0 mm 23 W/m2
08:11 -11.3 °C -58.5 °C -114650 hPa Calm   10.3 km/h 87 % 0 mm 33 W/m2
09:06 -10.7 °C -11.9 °C 34533.8 hPa ESE 5.1 km/h 18.2 km/h 87 % 0 mm 188 W/m2
09:21 -10.4 °C -58.5 °C -114650 hPa ESE 7.7 km/h 18.2 km/h 86 % 0 mm 220 W/m2
09:51 -9.4 °C -58.5 °C -114650 hPa ESE 7.7 km/h 28.5 km/h 81 % 0 mm 279 W/m2
10:46 -8.2 °C -58.5 °C -114650 hPa ESE 23.3 km/h 44.1 km/h 74 % 0 mm 489 W/m2
12:06 -6.1 °C -58.5 °C -114650 hPa SSE 20.8 km/h 36.2 km/h 54 % 0 mm 563 W/m2
12:26 -7.9 °C -10.9 °C 34520.3 hPa West 12.9 km/h 23.3 km/h 71 % 0 mm 701 W/m2
13:01 -8.5 °C -11 °C 34520.3 hPa West 12.9 km/h 20.8 km/h 75 % 0 mm 759 W/m2
13:06 -8.3 °C -10.8 °C 34520.3 hPa West 12.9 km/h 15.6 km/h 75 % 0 mm 765 W/m2
13:16 -7.9 °C -10.7 °C 34520.3 hPa West 7.7 km/h 23.3 km/h 72 % 0 mm 782 W/m2
13:26 -7.3 °C -58.5 °C -114650 hPa West 7.7 km/h 12.9 km/h 69 % 0 mm 802 W/m2
13:36 -6.5 °C -10.4 °C 34510.1 hPa South 10.3 km/h 28.5 km/h 64 % 0 mm 812 W/m2
13:41 -6.2 °C -10.8 °C 34510.1 hPa SSE 10.3 km/h 38.8 km/h 59 % 0 mm 812 W/m2
13:46 -6.2 °C -10.9 °C 34510.1 hPa South 15.6 km/h 33.6 km/h 58 % 0 mm 826 W/m2
13:51 -6.4 °C -10.9 °C 34510.1 hPa West 15.6 km/h 20.8 km/h 60 % 0 mm 826 W/m2
13:56 -6.6 °C -10.9 °C 34496.6 hPa SSW 10.3 km/h 28.5 km/h 61 % 0 mm 821 W/m2
14:06 -6.3 °C -10.7 °C 34496.6 hPa SSE 10.3 km/h 25.9 km/h 60 % 0 mm 823 W/m2
14:11 -5.7 °C -11.1 °C 34496.6 hPa South 15.6 km/h 49.2 km/h 54 % 0 mm 833 W/m2
14:16 -5.1 °C -11.5 °C 34496.6 hPa South 20.8 km/h 59.5 km/h 48 % 0 mm 833 W/m2
14:36 -6.2 °C -11.4 °C 34486.4 hPa SSW 18.2 km/h 38.8 km/h 55 % 0 mm 661 W/m2
14:56 -7.1 °C -10.7 °C 34486.4 hPa WNW 7.7 km/h 20.8 km/h 66 % 0 mm 752 W/m2
15:01 -7.6 °C -10.8 °C 34486.4 hPa West 10.3 km/h 20.8 km/h 69 % 0 mm 791 W/m2
15:06 -7.7 °C -10.9 °C 34486.4 hPa West 12.9 km/h 31.1 km/h 69 % 0 mm 819 W/m2
15:11 -7.8 °C -10.9 °C 34486.4 hPa WNW 15.6 km/h 25.9 km/h 70 % 0 mm 816 W/m2
15:21 -7.8 °C -11.1 °C 34486.4 hPa West 20.8 km/h 28.5 km/h 69 % 0 mm 814 W/m2
15:31 -8.1 °C -11.2 °C 34486.4 hPa NW 15.6 km/h 23.3 km/h 70 % 0 mm 803 W/m2
15:36 -8.2 °C -11.1 °C 34486.4 hPa NW 15.6 km/h 23.3 km/h 71 % 0 mm 796 W/m2
15:41 -8.2 °C -11.1 °C 34496.6 hPa WNW 12.9 km/h 28.5 km/h 72 % 0 mm 789 W/m2
15:46 -8.3 °C -11.1 °C 34496.6 hPa WNW 12.9 km/h 23.3 km/h 73 % 0 mm 782 W/m2
15:51 -8.4 °C -11.2 °C 34496.6 hPa NW 15.6 km/h 25.9 km/h 73 % 0 mm 779 W/m2
15:56 -8.4 °C -11.3 °C 34496.6 hPa WNW 15.6 km/h 23.3 km/h 72 % 0 mm 768 W/m2
16:01 -8.5 °C -11.3 °C 34496.6 hPa NW 15.6 km/h 31.1 km/h 72 % 0 mm 766 W/m2
16:06 -8.5 °C -11.2 °C 34496.6 hPa WNW 15.6 km/h 25.9 km/h 73 % 0 mm 761 W/m2
16:17 -8.1 °C -11.2 °C 34496.6 hPa NW 10.3 km/h 18.2 km/h 70 % 0 mm 745 W/m2
16:22 -7.7 °C -10.9 °C 34496.6 hPa WNW 7.7 km/h 10.3 km/h 69 % 0 mm 744 W/m2
16:27 -7.4 °C -10.8 °C 34496.6 hPa WNW 5.1 km/h 15.6 km/h 68 % 0 mm 731 W/m2
16:32 -7.3 °C -10.9 °C 34496.6 hPa NW 5.1 km/h 12.9 km/h 66 % 0 mm 726 W/m2
16:42 -6.9 °C -10.7 °C 34496.6 hPa NW 2.6 km/h 7.7 km/h 65 % 0 mm 715 W/m2
16:47 -6.8 °C -10.9 °C 34486.4 hPa NW 2.6 km/h 10.3 km/h 63 % 0 mm 710 W/m2
16:52 -7 °C -11.2 °C 34486.4 hPa WNW 2.6 km/h 20.8 km/h 62 % 0 mm 693 W/m2
17:02 -7.9 °C -11.3 °C 34486.4 hPa WNW 10.3 km/h 25.9 km/h 67 % 0 mm 677 W/m2
17:48 -7.9 °C -11.3 °C 34476.3 hPa NW 12.9 km/h 12.9 km/h 68 % 0 mm 568.0 W/m2
17:53 -7.7 °C -11.1 °C 34476.3 hPa WNW 12.9 km/h 12.9 km/h 68 % 0 mm 557.0 W/m2
17:58 -7.6 °C -11.1 °C 34476.3 hPa West 20.9 km/h 20.9 km/h 67 % 0 mm 543.0 W/m2
18:00 -8 °C -11.3 °C 34496.6 hPa NW 10.3 km/h 33.6 km/h 68 % 0 mm 423 W/m2
18:03 -7.7 °C -11.2 °C 34486.4 hPa NNW 26.9 km/h 26.9 km/h 67 % 0 mm 527.0 W/m2
18:08 -8.1 °C -11.4 °C 34486.4 hPa NW 29.8 km/h 29.8 km/h 68 % 0 mm 510.0 W/m2
18:13 -8.2 °C -11.3 °C 34486.4 hPa NNW 23.3 km/h 23.3 km/h 69 % 0 mm 499.0 W/m2
18:18 -8.2 °C -11.3 °C 34486.4 hPa NNW 23.8 km/h 23.8 km/h 70 % 0 mm 482.0 W/m2
18:23 -8.2 °C -11.3 °C 34486.4 hPa NNW 28.5 km/h 28.5 km/h 69 % 0 mm 469.0 W/m2
18:28 -8.1 °C -11.3 °C 34486.4 hPa NNW 17.9 km/h 17.9 km/h 69 % 0 mm 457.0 W/m2
18:30 -7.9 °C -11.5 °C 34496.6 hPa NNW 10.3 km/h 23.3 km/h 66 % 0 mm 334 W/m2
18:33 -8 °C -11.3 °C 34486.4 hPa NNW 20.8 km/h 20.8 km/h 68 % 0 mm 443.0 W/m2
18:38 -7.9 °C -11.3 °C 34486.4 hPa NW 20.8 km/h 20.8 km/h 68 % 0 mm 432.0 W/m2
18:43 -7.9 °C -11.3 °C 34486.4 hPa NW 20.8 km/h 20.8 km/h 67 % 0 mm 413.0 W/m2
18:48 -7.9 °C -11.3 °C 34486.4 hPa NNW 23.3 km/h 23.3 km/h 68 % 0 mm 403.0 W/m2
18:53 -8 °C -11.3 °C 34486.4 hPa NW 28.5 km/h 28.5 km/h 68 % 0 mm 383.0 W/m2
18:58 -8.1 °C -11.4 °C 34486.4 hPa WNW 20.8 km/h 20.8 km/h 68 % 0 mm 369.0 W/m2
19:00 -7.8 °C -11.3 °C 34510.1 hPa NW 10.3 km/h 25.9 km/h 67 % 0 mm 206 W/m2
19:03 -7.9 °C -11.3 °C 34486.4 hPa NW 20.9 km/h 20.9 km/h 68 % 0 mm 352.0 W/m2
19:08 -7.9 °C -11.3 °C 34486.4 hPa WNW 23.3 km/h 23.3 km/h 67 % 0 mm 338.0 W/m2
19:13 -7.9 °C -11.3 °C 34486.4 hPa NNW 23.8 km/h 23.8 km/h 67 % 0 mm 327.0 W/m2
19:18 -7.9 °C -11.3 °C 34496.6 hPa NNW 15.6 km/h 15.6 km/h 67 % 0 mm 311.0 W/m2
19:23 -7.8 °C -11.4 °C 34496.6 hPa NNW 18.2 km/h 18.2 km/h 66 % 0 mm 297.0 W/m2
19:28 -7.8 °C -11.3 °C 34496.6 hPa NNW 15.6 km/h 15.6 km/h 66 % 0 mm 278.0 W/m2
19:30 -8.2 °C -11.3 °C 34533.8 hPa NW 12.9 km/h 25.9 km/h 70 % 0 mm 70 W/m2
19:33 -7.7 °C -11.3 °C 34496.6 hPa NW 18.2 km/h 18.2 km/h 66 % 0 mm 262.0 W/m2
19:40 -7.8 °C -11.3 °C 34496.6 hPa NNW 23.8 km/h 23.8 km/h 66 % 0 mm 218.0 W/m2
19:45 -7.9 °C -11.4 °C 34496.6 hPa WNW 17.9 km/h 17.9 km/h 66 % 0 mm 186.0 W/m2
19:50 -7.9 °C -11.4 °C 34496.6 hPa NW 25.9 km/h 25.9 km/h 66 % 0 mm 123.0 W/m2
19:55 -7.9 °C -11.4 °C 34496.6 hPa NNW 17.9 km/h 17.9 km/h 67 % 0 mm 91.0 W/m2
20:00 -8.1 °C -11.5 °C 34510.1 hPa North 20.9 km/h 20.9 km/h 67 % 0 mm 62.0 W/m2
20:05 -8.2 °C -11.5 °C 34510.1 hPa NNW 18.2 km/h 18.2 km/h 68 % 0 mm 88.0 W/m2
20:10 -8.2 °C -11.4 °C 34510.1 hPa NNW 23.8 km/h 23.8 km/h 69 % 0 mm 74.0 W/m2
20:15 -8.3 °C -11.3 °C 34520.3 hPa NW 17.9 km/h 17.9 km/h 70 % 0 mm 65.0 W/m2
20:20 -8.3 °C -11.4 °C 34520.3 hPa NW 20.8 km/h 20.8 km/h 70 % 0 mm 69.0 W/m2
20:25 -8.3 °C -11.4 °C 34520.3 hPa WNW 20.9 km/h 20.9 km/h 70 % 0 mm 51.0 W/m2
20:30 -8.4 °C -11.3 °C 34520.3 hPa NW 20.9 km/h 20.9 km/h 71 % 0 mm 56.0 W/m2
20:38 -8.6 °C -11.3 °C 34520.3 hPa WNW 29.8 km/h 29.8 km/h 73 % 0 mm 26.0 W/m2
20:43 -8.7 °C -11.4 °C 34520.3 hPa NW 33.6 km/h 33.6 km/h 73 % 0 mm 32.0 W/m2
20:48 -8.8 °C -11.4 °C 34520.3 hPa West 26.9 km/h 26.9 km/h 74 % 0 mm 19.0 W/m2
20:53 -9 °C -11.5 °C 34520.3 hPa WNW 23.8 km/h 23.8 km/h 75 % 0 mm 14.0 W/m2
20:58 -9.1 °C -11.6 °C 34533.8 hPa NNW 29.8 km/h 29.8 km/h 75 % 0 mm 11.0 W/m2
21:00 -9.2 °C -11.7 °C 34567.7 hPa NNW 12.9 km/h 28.5 km/h 75 % 0 mm 0 W/m2
21:03 -9.2 °C -11.5 °C 34533.8 hPa NW 26.9 km/h 26.9 km/h 76 % 0 mm 9.0 W/m2
21:08 -9.3 °C -11.6 °C 34533.8 hPa NNW 23.8 km/h 23.8 km/h 76 % 0 mm 5.0 W/m2
21:13 -9.3 °C -11.6 °C 34533.8 hPa WNW 17.9 km/h 17.9 km/h 76 % 0 mm 0.0 W/m2
21:18 -9.3 °C -11.6 °C 34533.8 hPa North 17.9 km/h 17.9 km/h 76 % 0 mm 0.0 W/m2
21:23 -9.3 °C -11.7 °C 34544 hPa North 20.9 km/h 20.9 km/h 75 % 0 mm 0.0 W/m2
21:28 -9.3 °C -11.7 °C 34544 hPa NW 26.9 km/h 26.9 km/h 75 % 0 mm 0.0 W/m2
21:30 -9.3 °C -12.2 °C 34591.4 hPa NW 12.9 km/h 31.1 km/h 71 % 0 mm 0 W/m2
21:33 -9.2 °C -11.6 °C 34544 hPa NW 23.3 km/h 23.3 km/h 75 % 0 mm 0.0 W/m2
21:38 -9.2 °C -11.8 °C 34544 hPa NNW 20.9 km/h 20.9 km/h 74 % 0 mm 0.0 W/m2
21:43 -9.2 °C -11.8 °C 34544 hPa NW 25.9 km/h 25.9 km/h 74 % 0 mm 0.0 W/m2
21:48 -9.2 °C -11.6 °C 34554.1 hPa NNW 20.9 km/h 20.9 km/h 75 % 0 mm 0.0 W/m2
21:53 -9.3 °C -11.7 °C 34554.1 hPa NNW 25.9 km/h 25.9 km/h 75 % 0 mm 0.0 W/m2
21:59 -9.3 °C -11.8 °C 34567.7 hPa NW 20.8 km/h 20.8 km/h 75 % 0 mm 0.0 W/m2
22:00 -9.3 °C -12.2 °C 34591.4 hPa North 5.1 km/h 15.6 km/h 71 % 0 mm 0 W/m2
22:04 -9.4 °C -11.8 °C 34567.7 hPa NNW 26.9 km/h 26.9 km/h 75 % 0 mm 0.0 W/m2
22:09 -9.3 °C -11.9 °C 34567.7 hPa West 20.9 km/h 20.9 km/h 74 % 0 mm 0.0 W/m2
22:14 -9.3 °C -12 °C 34567.7 hPa WNW 20.9 km/h 20.9 km/h 73 % 0 mm 0.0 W/m2
22:19 -9.3 °C -12.2 °C 34567.7 hPa WNW 23.8 km/h 23.8 km/h 71 % 0 mm 0.0 W/m2
22:24 -9.3 °C -12.2 °C 34577.8 hPa NNW 18.2 km/h 18.2 km/h 71 % 0 mm 0.0 W/m2
22:29 -9.3 °C -12.3 °C 34577.8 hPa NNW 15 km/h 15 km/h 70 % 0 mm 0.0 W/m2
22:30 -9.4 °C -12.2 °C 34591.4 hPa ENE 5.1 km/h 18.2 km/h 72 % 0 mm 0 W/m2
22:34 -9.3 °C -12.3 °C 34577.8 hPa North 12.9 km/h 12.9 km/h 70 % 0 mm 0.0 W/m2
22:39 -9.3 °C -12.4 °C 34577.8 hPa North 15 km/h 15 km/h 69 % 0 mm 0.0 W/m2
22:44 -9.3 °C -12.3 °C 34577.8 hPa NNW 15 km/h 15 km/h 70 % 0 mm 0.0 W/m2
22:49 -9.3 °C -12.3 °C 34577.8 hPa North 9 km/h 9 km/h 70 % 0 mm 0.0 W/m2
22:54 -9.3 °C -12.2 °C 34577.8 hPa North 6 km/h 6 km/h 71 % 0 mm 0.0 W/m2
22:59 -9.3 °C -12.1 °C 34577.8 hPa North 9 km/h 9 km/h 72 % 0 mm 0.0 W/m2
23:00 -9.5 °C -12.4 °C 34591.4 hPa ENE 5.1 km/h 18.2 km/h 71 % 0 mm 0 W/m2
23:04 -9.4 °C -12.2 °C 34577.8 hPa NE 12.9 km/h 12.9 km/h 72 % 0 mm 0.0 W/m2
23:09 -9.5 °C -12.3 °C 34577.8 hPa NE 11.9 km/h 11.9 km/h 72 % 0 mm 0.0 W/m2
23:14 -9.5 °C -12.3 °C 34577.8 hPa ENE 9 km/h 9 km/h 72 % 0 mm 0.0 W/m2
23:19 -9.5 °C -12.3 °C 34577.8 hPa ENE 9 km/h 9 km/h 72 % 0 mm 0.0 W/m2
23:24 -9.5 °C -12.3 °C 34577.8 hPa ENE 18.2 km/h 18.2 km/h 72 % 0 mm 0.0 W/m2
23:29 -9.5 °C -12.3 °C 34577.8 hPa ENE 5.1 km/h 5.1 km/h 72 % 0 mm 0.0 W/m2
23:30 -9.5 °C -12.9 °C 34591.4 hPa ENE 2.6 km/h 12.9 km/h 67 % 0 mm 0 W/m2
23:34 -9.5 °C -12.3 °C 34577.8 hPa ENE 10.3 km/h 10.3 km/h 72 % 0 mm 0.0 W/m2
23:39 -9.5 °C -12.3 °C 34577.8 hPa ENE 10.3 km/h 10.3 km/h 72 % 0 mm 0.0 W/m2
23:44 -9.5 °C -12.3 °C 34577.8 hPa ENE 9 km/h 9 km/h 72 % 0 mm 0.0 W/m2
23:49 -9.6 °C -12.4 °C 34577.8 hPa ENE 10.3 km/h 10.3 km/h 71 % 0 mm 0.0 W/m2
23:54 -9.6 °C -12.4 °C 34591.4 hPa ENE 9 km/h 9 km/h 71 % 0 mm 0.0 W/m2
23:59 -9.6 °C -12.6 °C 34591.4 hPa ENE 12.9 km/h 12.9 km/h 70 % 0 mm 0.0 W/m2
Meteocoruña
Agradecimientos a Weather Underground - 3 mb